sensor_id;sensor_type;location;lat;lon;timestamp;P1;durP1;ratioP1;P2;durP2;ratioP2
37051;SDS011;22964;52.272;13.356;2024-03-29T00:00:34;1.60;;;0.73;;
37051;SDS011;22964;52.272;13.356;2024-03-29T00:03:00;1.10;;;0.60;;
37051;SDS011;22964;52.272;13.356;2024-03-29T00:05:25;1.77;;;0.70;;
37051;SDS011;22964;52.272;13.356;2024-03-29T00:07:51;0.82;;;0.57;;
37051;SDS011;22964;52.272;13.356;2024-03-29T00:10:17;0.95;;;0.60;;
37051;SDS011;22964;52.272;13.356;2024-03-29T00:12:43;1.70;;;0.80;;
37051;SDS011;22964;52.272;13.356;2024-03-29T00:15:09;1.20;;;0.65;;
37051;SDS011;22964;52.272;13.356;2024-03-29T00:17:35;1.48;;;0.75;;
37051;SDS011;22964;52.272;13.356;2024-03-29T00:20:00;1.20;;;0.70;;
37051;SDS011;22964;52.272;13.356;2024-03-29T00:22:27;2.22;;;1.00;;
37051;SDS011;22964;52.272;13.356;2024-03-29T00:24:53;1.33;;;0.90;;
37051;SDS011;22964;52.272;13.356;2024-03-29T00:27:19;1.13;;;0.70;;
37051;SDS011;22964;52.272;13.356;2024-03-29T00:29:44;1.55;;;0.68;;
37051;SDS011;22964;52.272;13.356;2024-03-29T00:32:12;3.00;;;0.70;;
37051;SDS011;22964;52.272;13.356;2024-03-29T00:34:38;1.25;;;0.50;;
37051;SDS011;22964;52.272;13.356;2024-03-29T00:37:04;0.73;;;0.57;;
37051;SDS011;22964;52.272;13.356;2024-03-29T00:39:29;1.48;;;0.60;;
37051;SDS011;22964;52.272;13.356;2024-03-29T00:41:55;0.95;;;0.60;;
37051;SDS011;22964;52.272;13.356;2024-03-29T00:44:21;0.60;;;0.60;;
37051;SDS011;22964;52.272;13.356;2024-03-29T00:46:46;0.77;;;0.57;;
37051;SDS011;22964;52.272;13.356;2024-03-29T00:49:12;0.98;;;0.60;;
37051;SDS011;22964;52.272;13.356;2024-03-29T00:51:38;3.17;;;0.80;;
37051;SDS011;22964;52.272;13.356;2024-03-29T00:54:04;1.20;;;0.60;;
37051;SDS011;22964;52.272;13.356;2024-03-29T00:56:30;1.88;;;0.90;;
37051;SDS011;22964;52.272;13.356;2024-03-29T00:58:56;2.03;;;0.70;;
37051;SDS011;22964;52.272;13.356;2024-03-29T01:01:21;1.20;;;0.70;;
37051;SDS011;22964;52.272;13.356;2024-03-29T01:03:47;1.00;;;0.80;;
37051;SDS011;22964;52.272;13.356;2024-03-29T01:06:13;1.48;;;0.80;;
37051;SDS011;22964;52.272;13.356;2024-03-29T01:08:38;0.85;;;0.77;;
37051;SDS011;22964;52.272;13.356;2024-03-29T01:11:04;1.95;;;0.90;;
37051;SDS011;22964;52.272;13.356;2024-03-29T01:13:30;2.30;;;0.77;;
37051;SDS011;22964;52.272;13.356;2024-03-29T01:15:55;1.05;;;0.68;;
37051;SDS011;22964;52.272;13.356;2024-03-29T01:18:21;2.08;;;0.80;;
37051;SDS011;22964;52.272;13.356;2024-03-29T01:20:47;1.38;;;0.90;;
37051;SDS011;22964;52.272;13.356;2024-03-29T01:23:12;1.10;;;0.80;;
37051;SDS011;22964;52.272;13.356;2024-03-29T01:25:38;1.15;;;0.80;;
37051;SDS011;22964;52.272;13.356;2024-03-29T01:28:04;1.70;;;0.90;;
37051;SDS011;22964;52.272;13.356;2024-03-29T01:30:30;2.78;;;0.90;;
37051;SDS011;22964;52.272;13.356;2024-03-29T01:32:55;2.88;;;1.00;;
37051;SDS011;22964;52.272;13.356;2024-03-29T01:35:21;2.88;;;1.05;;
37051;SDS011;22964;52.272;13.356;2024-03-29T01:37:47;2.13;;;1.17;;
37051;SDS011;22964;52.272;13.356;2024-03-29T01:40:12;2.85;;;1.17;;
37051;SDS011;22964;52.272;13.356;2024-03-29T01:42:38;1.67;;;1.00;;
37051;SDS011;22964;52.272;13.356;2024-03-29T01:45:04;2.50;;;1.20;;
37051;SDS011;22964;52.272;13.356;2024-03-29T01:47:30;1.55;;;0.95;;
37051;SDS011;22964;52.272;13.356;2024-03-29T01:49:56;2.10;;;1.10;;
37051;SDS011;22964;52.272;13.356;2024-03-29T01:52:22;1.70;;;1.10;;
37051;SDS011;22964;52.272;13.356;2024-03-29T01:54:48;4.60;;;1.30;;
37051;SDS011;22964;52.272;13.356;2024-03-29T01:57:15;1.65;;;1.00;;
37051;SDS011;22964;52.272;13.356;2024-03-29T01:59:42;2.05;;;1.13;;
37051;SDS011;22964;52.272;13.356;2024-03-29T02:02:10;2.10;;;1.10;;
37051;SDS011;22964;52.272;13.356;2024-03-29T02:04:36;1.25;;;1.00;;
37051;SDS011;22964;52.272;13.356;2024-03-29T02:07:03;1.98;;;1.10;;
37051;SDS011;22964;52.272;13.356;2024-03-29T02:09:29;2.60;;;1.17;;
37051;SDS011;22964;52.272;13.356;2024-03-29T02:11:55;2.10;;;1.20;;
37051;SDS011;22964;52.272;13.356;2024-03-29T02:14:20;2.97;;;1.20;;
37051;SDS011;22964;52.272;13.356;2024-03-29T02:16:46;3.58;;;1.10;;
37051;SDS011;22964;52.272;13.356;2024-03-29T02:19:12;1.60;;;1.10;;
37051;SDS011;22964;52.272;13.356;2024-03-29T02:21:40;2.53;;;1.30;;
37051;SDS011;22964;52.272;13.356;2024-03-29T02:24:10;2.38;;;1.20;;
37051;SDS011;22964;52.272;13.356;2024-03-29T02:26:38;1.50;;;1.13;;
37051;SDS011;22964;52.272;13.356;2024-03-29T02:29:07;1.92;;;1.30;;
37051;SDS011;22964;52.272;13.356;2024-03-29T02:31:34;2.42;;;1.30;;
37051;SDS011;22964;52.272;13.356;2024-03-29T02:34:00;2.30;;;1.50;;
37051;SDS011;22964;52.272;13.356;2024-03-29T02:36:26;2.15;;;1.35;;
37051;SDS011;22964;52.272;13.356;2024-03-29T02:38:51;2.10;;;1.30;;
37051;SDS011;22964;52.272;13.356;2024-03-29T02:41:17;2.05;;;1.23;;
37051;SDS011;22964;52.272;13.356;2024-03-29T02:43:43;2.50;;;1.15;;
37051;SDS011;22964;52.272;13.356;2024-03-29T02:46:09;1.50;;;1.10;;
37051;SDS011;22964;52.272;13.356;2024-03-29T02:48:35;2.42;;;1.40;;
37051;SDS011;22964;52.272;13.356;2024-03-29T02:51:01;1.95;;;1.15;;
37051;SDS011;22964;52.272;13.356;2024-03-29T02:53:26;2.45;;;1.42;;
37051;SDS011;22964;52.272;13.356;2024-03-29T02:55:52;2.40;;;1.50;;
37051;SDS011;22964;52.272;13.356;2024-03-29T02:58:18;1.95;;;1.20;;
37051;SDS011;22964;52.272;13.356;2024-03-29T03:00:43;2.20;;;1.17;;
37051;SDS011;22964;52.272;13.356;2024-03-29T03:03:09;2.00;;;1.20;;
37051;SDS011;22964;52.272;13.356;2024-03-29T03:05:35;1.98;;;1.23;;
37051;SDS011;22964;52.272;13.356;2024-03-29T03:08:00;2.92;;;1.40;;
37051;SDS011;22964;52.272;13.356;2024-03-29T03:10:47;1.80;;;1.10;;
37051;SDS011;22964;52.272;13.356;2024-03-29T03:13:26;2.72;;;1.13;;
37051;SDS011;22964;52.272;13.356;2024-03-29T03:15:53;2.05;;;1.30;;
37051;SDS011;22964;52.272;13.356;2024-03-29T03:18:19;2.63;;;1.33;;
37051;SDS011;22964;52.272;13.356;2024-03-29T03:20:54;3.20;;;1.10;;
37051;SDS011;22964;52.272;13.356;2024-03-29T03:23:23;2.58;;;1.20;;
37051;SDS011;22964;52.272;13.356;2024-03-29T03:26:02;3.42;;;1.10;;
37051;SDS011;22964;52.272;13.356;2024-03-29T03:28:29;2.67;;;1.27;;
37051;SDS011;22964;52.272;13.356;2024-03-29T03:30:55;3.72;;;1.35;;
37051;SDS011;22964;52.272;13.356;2024-03-29T03:33:20;2.58;;;1.05;;
37051;SDS011;22964;52.272;13.356;2024-03-29T03:35:47;2.50;;;1.25;;
37051;SDS011;22964;52.272;13.356;2024-03-29T03:38:13;1.95;;;1.10;;
37051;SDS011;22964;52.272;13.356;2024-03-29T03:40:38;2.35;;;1.20;;
37051;SDS011;22964;52.272;13.356;2024-03-29T03:43:05;3.53;;;1.27;;
37051;SDS011;22964;52.272;13.356;2024-03-29T03:45:38;5.22;;;1.50;;
37051;SDS011;22964;52.272;13.356;2024-03-29T03:48:05;2.55;;;1.20;;
37051;SDS011;22964;52.272;13.356;2024-03-29T03:50:32;3.45;;;1.23;;
37051;SDS011;22964;52.272;13.356;2024-03-29T03:52:58;2.28;;;1.20;;
37051;SDS011;22964;52.272;13.356;2024-03-29T03:55:24;2.80;;;0.98;;
37051;SDS011;22964;52.272;13.356;2024-03-29T03:57:50;2.50;;;1.20;;
37051;SDS011;22964;52.272;13.356;2024-03-29T04:00:19;5.40;;;1.20;;
37051;SDS011;22964;52.272;13.356;2024-03-29T04:02:49;3.05;;;1.15;;
37051;SDS011;22964;52.272;13.356;2024-03-29T04:05:18;1.65;;;1.10;;
37051;SDS011;22964;52.272;13.356;2024-03-29T04:07:45;2.20;;;1.00;;
37051;SDS011;22964;52.272;13.356;2024-03-29T04:10:11;3.42;;;1.10;;
37051;SDS011;22964;52.272;13.356;2024-03-29T04:12:37;3.45;;;1.20;;
37051;SDS011;22964;52.272;13.356;2024-03-29T04:15:03;4.90;;;1.25;;
37051;SDS011;22964;52.272;13.356;2024-03-29T04:17:31;1.52;;;1.02;;
37051;SDS011;22964;52.272;13.356;2024-03-29T04:19:57;2.65;;;1.05;;
37051;SDS011;22964;52.272;13.356;2024-03-29T04:22:23;1.33;;;1.10;;
37051;SDS011;22964;52.272;13.356;2024-03-29T04:24:49;2.20;;;1.10;;
37051;SDS011;22964;52.272;13.356;2024-03-29T04:27:15;2.08;;;1.00;;
37051;SDS011;22964;52.272;13.356;2024-03-29T04:29:41;1.63;;;1.10;;
37051;SDS011;22964;52.272;13.356;2024-03-29T04:32:07;2.33;;;1.10;;
37051;SDS011;22964;52.272;13.356;2024-03-29T04:34:33;2.22;;;0.95;;
37051;SDS011;22964;52.272;13.356;2024-03-29T04:36:59;3.05;;;1.10;;
37051;SDS011;22964;52.272;13.356;2024-03-29T04:39:25;2.72;;;1.10;;
37051;SDS011;22964;52.272;13.356;2024-03-29T04:41:51;2.38;;;1.00;;
37051;SDS011;22964;52.272;13.356;2024-03-29T04:44:23;2.33;;;1.08;;
37051;SDS011;22964;52.272;13.356;2024-03-29T04:46:53;2.40;;;1.15;;
37051;SDS011;22964;52.272;13.356;2024-03-29T04:49:19;2.63;;;1.13;;
37051;SDS011;22964;52.272;13.356;2024-03-29T04:51:57;2.00;;;0.90;;
37051;SDS011;22964;52.272;13.356;2024-03-29T04:54:23;1.33;;;0.90;;
37051;SDS011;22964;52.272;13.356;2024-03-29T04:56:48;1.92;;;0.95;;
37051;SDS011;22964;52.272;13.356;2024-03-29T04:59:14;1.83;;;1.10;;
37051;SDS011;22964;52.272;13.356;2024-03-29T05:01:42;1.90;;;0.93;;
37051;SDS011;22964;52.272;13.356;2024-03-29T05:04:09;2.05;;;0.90;;
37051;SDS011;22964;52.272;13.356;2024-03-29T05:06:35;2.03;;;0.90;;
37051;SDS011;22964;52.272;13.356;2024-03-29T05:09:01;1.20;;;0.82;;
37051;SDS011;22964;52.272;13.356;2024-03-29T05:11:27;1.80;;;0.93;;
37051;SDS011;22964;52.272;13.356;2024-03-29T05:13:52;2.55;;;0.90;;
37051;SDS011;22964;52.272;13.356;2024-03-29T05:16:18;3.17;;;1.10;;
37051;SDS011;22964;52.272;13.356;2024-03-29T05:18:46;3.13;;;1.00;;
37051;SDS011;22964;52.272;13.356;2024-03-29T05:21:12;2.22;;;0.90;;
37051;SDS011;22964;52.272;13.356;2024-03-29T05:23:38;3.22;;;1.00;;
37051;SDS011;22964;52.272;13.356;2024-03-29T05:26:04;2.88;;;0.90;;
37051;SDS011;22964;52.272;13.356;2024-03-29T05:28:29;2.40;;;0.90;;
37051;SDS011;22964;52.272;13.356;2024-03-29T05:30:55;2.25;;;1.10;;
37051;SDS011;22964;52.272;13.356;2024-03-29T05:33:21;2.80;;;1.00;;
37051;SDS011;22964;52.272;13.356;2024-03-29T05:35:47;2.17;;;0.93;;
37051;SDS011;22964;52.272;13.356;2024-03-29T05:38:12;2.30;;;0.95;;
37051;SDS011;22964;52.272;13.356;2024-03-29T05:40:38;2.25;;;1.23;;
37051;SDS011;22964;52.272;13.356;2024-03-29T05:43:04;3.22;;;0.90;;
37051;SDS011;22964;52.272;13.356;2024-03-29T05:45:30;2.95;;;1.10;;
37051;SDS011;22964;52.272;13.356;2024-03-29T05:47:56;2.65;;;0.90;;
37051;SDS011;22964;52.272;13.356;2024-03-29T05:50:23;2.47;;;0.70;;
37051;SDS011;22964;52.272;13.356;2024-03-29T05:52:52;1.42;;;0.80;;
37051;SDS011;22964;52.272;13.356;2024-03-29T05:55:18;2.15;;;1.02;;
37051;SDS011;22964;52.272;13.356;2024-03-29T05:57:44;4.75;;;1.20;;
37051;SDS011;22964;52.272;13.356;2024-03-29T06:00:10;3.05;;;0.98;;
37051;SDS011;22964;52.272;13.356;2024-03-29T06:02:38;2.83;;;1.00;;
37051;SDS011;22964;52.272;13.356;2024-03-29T06:05:04;3.65;;;1.00;;
37051;SDS011;22964;52.272;13.356;2024-03-29T06:07:30;2.38;;;1.00;;
37051;SDS011;22964;52.272;13.356;2024-03-29T06:09:58;2.20;;;1.00;;
37051;SDS011;22964;52.272;13.356;2024-03-29T06:12:25;3.05;;;0.90;;
37051;SDS011;22964;52.272;13.356;2024-03-29T06:14:51;2.13;;;0.90;;
37051;SDS011;22964;52.272;13.356;2024-03-29T06:17:36;1.55;;;0.70;;
37051;SDS011;22964;52.272;13.356;2024-03-29T06:20:02;1.40;;;1.00;;
37051;SDS011;22964;52.272;13.356;2024-03-29T06:22:29;3.42;;;1.13;;
37051;SDS011;22964;52.272;13.356;2024-03-29T06:24:55;2.00;;;0.82;;
37051;SDS011;22964;52.272;13.356;2024-03-29T06:27:30;1.38;;;0.80;;
37051;SDS011;22964;52.272;13.356;2024-03-29T06:30:00;3.00;;;0.80;;
37051;SDS011;22964;52.272;13.356;2024-03-29T06:32:27;1.95;;;0.90;;
37051;SDS011;22964;52.272;13.356;2024-03-29T06:34:53;2.70;;;0.88;;
37051;SDS011;22964;52.272;13.356;2024-03-29T06:37:18;3.63;;;0.90;;
37051;SDS011;22964;52.272;13.356;2024-03-29T06:39:47;2.30;;;0.80;;
37051;SDS011;22964;52.272;13.356;2024-03-29T06:42:13;2.08;;;1.02;;
37051;SDS011;22964;52.272;13.356;2024-03-29T06:44:39;1.77;;;1.00;;
37051;SDS011;22964;52.272;13.356;2024-03-29T06:47:05;2.42;;;1.10;;
37051;SDS011;22964;52.272;13.356;2024-03-29T06:49:32;2.08;;;0.80;;
37051;SDS011;22964;52.272;13.356;2024-03-29T06:51:58;1.08;;;0.60;;
37051;SDS011;22964;52.272;13.356;2024-03-29T06:54:25;1.98;;;0.68;;
37051;SDS011;22964;52.272;13.356;2024-03-29T06:56:55;1.30;;;0.77;;
37051;SDS011;22964;52.272;13.356;2024-03-29T06:59:22;1.58;;;0.90;;
37051;SDS011;22964;52.272;13.356;2024-03-29T07:01:48;2.35;;;0.93;;
37051;SDS011;22964;52.272;13.356;2024-03-29T07:04:17;2.20;;;0.70;;
37051;SDS011;22964;52.272;13.356;2024-03-29T07:06:44;1.27;;;0.70;;
37051;SDS011;22964;52.272;13.356;2024-03-29T07:09:13;1.52;;;0.73;;
37051;SDS011;22964;52.272;13.356;2024-03-29T07:11:39;1.85;;;0.80;;
37051;SDS011;22964;52.272;13.356;2024-03-29T07:14:05;2.95;;;0.90;;
37051;SDS011;22964;52.272;13.356;2024-03-29T07:16:30;2.00;;;0.77;;
37051;SDS011;22964;52.272;13.356;2024-03-29T07:18:56;1.90;;;0.70;;
37051;SDS011;22964;52.272;13.356;2024-03-29T07:21:22;1.58;;;0.82;;
37051;SDS011;22964;52.272;13.356;2024-03-29T07:23:47;1.38;;;0.77;;
37051;SDS011;22964;52.272;13.356;2024-03-29T07:26:14;2.10;;;0.80;;
37051;SDS011;22964;52.272;13.356;2024-03-29T07:28:39;1.83;;;0.80;;
37051;SDS011;22964;52.272;13.356;2024-03-29T07:31:06;2.63;;;0.90;;
37051;SDS011;22964;52.272;13.356;2024-03-29T07:33:32;1.33;;;0.80;;
37051;SDS011;22964;52.272;13.356;2024-03-29T07:35:58;1.65;;;0.80;;
37051;SDS011;22964;52.272;13.356;2024-03-29T07:38:24;3.58;;;0.95;;
37051;SDS011;22964;52.272;13.356;2024-03-29T07:40:50;2.13;;;0.90;;
37051;SDS011;22964;52.272;13.356;2024-03-29T07:43:20;1.35;;;0.75;;
37051;SDS011;22964;52.272;13.356;2024-03-29T07:45:47;1.70;;;0.90;;
37051;SDS011;22964;52.272;13.356;2024-03-29T07:48:13;4.63;;;1.70;;
37051;SDS011;22964;52.272;13.356;2024-03-29T07:50:41;2.83;;;1.10;;
37051;SDS011;22964;52.272;13.356;2024-03-29T07:53:10;1.48;;;0.88;;
37051;SDS011;22964;52.272;13.356;2024-03-29T07:55:37;1.45;;;0.77;;
37051;SDS011;22964;52.272;13.356;2024-03-29T07:58:04;1.38;;;0.70;;
37051;SDS011;22964;52.272;13.356;2024-03-29T08:00:31;2.08;;;0.80;;
37051;SDS011;22964;52.272;13.356;2024-03-29T08:02:57;1.27;;;0.80;;
37051;SDS011;22964;52.272;13.356;2024-03-29T08:05:24;1.88;;;0.70;;
37051;SDS011;22964;52.272;13.356;2024-03-29T08:07:51;2.60;;;0.77;;
37051;SDS011;22964;52.272;13.356;2024-03-29T08:10:16;1.40;;;0.90;;
37051;SDS011;22964;52.272;13.356;2024-03-29T08:12:42;1.20;;;0.70;;
37051;SDS011;22964;52.272;13.356;2024-03-29T08:15:08;2.55;;;1.05;;
37051;SDS011;22964;52.272;13.356;2024-03-29T08:17:34;2.30;;;0.85;;
37051;SDS011;22964;52.272;13.356;2024-03-29T08:20:01;2.22;;;0.90;;
37051;SDS011;22964;52.272;13.356;2024-03-29T08:22:28;1.35;;;0.70;;
37051;SDS011;22964;52.272;13.356;2024-03-29T08:24:54;1.55;;;0.80;;
37051;SDS011;22964;52.272;13.356;2024-03-29T08:27:20;1.58;;;0.80;;
37051;SDS011;22964;52.272;13.356;2024-03-29T08:29:46;1.35;;;0.70;;
37051;SDS011;22964;52.272;13.356;2024-03-29T08:32:12;1.85;;;0.93;;
37051;SDS011;22964;52.272;13.356;2024-03-29T08:34:38;1.85;;;0.80;;
37051;SDS011;22964;52.272;13.356;2024-03-29T08:37:04;3.28;;;0.93;;
37051;SDS011;22964;52.272;13.356;2024-03-29T08:39:30;2.20;;;0.90;;
37051;SDS011;22964;52.272;13.356;2024-03-29T08:41:57;2.70;;;1.00;;
37051;SDS011;22964;52.272;13.356;2024-03-29T08:44:30;1.92;;;0.90;;
37051;SDS011;22964;52.272;13.356;2024-03-29T08:46:56;2.20;;;1.00;;
37051;SDS011;22964;52.272;13.356;2024-03-29T08:49:23;1.77;;;0.75;;
37051;SDS011;22964;52.272;13.356;2024-03-29T08:51:49;1.70;;;0.82;;
37051;SDS011;22964;52.272;13.356;2024-03-29T08:54:15;1.33;;;0.70;;
37051;SDS011;22964;52.272;13.356;2024-03-29T08:56:41;1.55;;;0.75;;
37051;SDS011;22964;52.272;13.356;2024-03-29T08:59:06;5.00;;;1.00;;
37051;SDS011;22964;52.272;13.356;2024-03-29T09:01:36;2.03;;;1.00;;
37051;SDS011;22964;52.272;13.356;2024-03-29T09:04:03;2.42;;;0.95;;
37051;SDS011;22964;52.272;13.356;2024-03-29T09:06:32;2.00;;;0.88;;
37051;SDS011;22964;52.272;13.356;2024-03-29T09:08:58;1.30;;;0.90;;
37051;SDS011;22964;52.272;13.356;2024-03-29T09:11:24;1.83;;;0.82;;
37051;SDS011;22964;52.272;13.356;2024-03-29T09:13:50;3.00;;;1.00;;
37051;SDS011;22964;52.272;13.356;2024-03-29T09:16:15;2.08;;;0.73;;
37051;SDS011;22964;52.272;13.356;2024-03-29T09:18:41;0.90;;;0.70;;
37051;SDS011;22964;52.272;13.356;2024-03-29T09:21:07;2.33;;;0.80;;
37051;SDS011;22964;52.272;13.356;2024-03-29T09:23:34;1.50;;;0.80;;
37051;SDS011;22964;52.272;13.356;2024-03-29T09:26:00;2.15;;;0.88;;
37051;SDS011;22964;52.272;13.356;2024-03-29T09:28:29;1.92;;;0.80;;
37051;SDS011;22964;52.272;13.356;2024-03-29T09:31:00;1.48;;;0.80;;
37051;SDS011;22964;52.272;13.356;2024-03-29T09:33:27;2.75;;;1.00;;
37051;SDS011;22964;52.272;13.356;2024-03-29T09:35:53;3.55;;;1.10;;
37051;SDS011;22964;52.272;13.356;2024-03-29T09:38:20;1.80;;;0.90;;
37051;SDS011;22964;52.272;13.356;2024-03-29T09:40:46;1.50;;;0.80;;
37051;SDS011;22964;52.272;13.356;2024-03-29T09:43:14;2.50;;;1.08;;
37051;SDS011;22964;52.272;13.356;2024-03-29T09:45:42;2.92;;;0.80;;
37051;SDS011;22964;52.272;13.356;2024-03-29T09:48:09;2.17;;;1.27;;
37051;SDS011;22964;52.272;13.356;2024-03-29T09:50:35;1.48;;;0.85;;
37051;SDS011;22964;52.272;13.356;2024-03-29T09:53:01;2.22;;;1.13;;
37051;SDS011;22964;52.272;13.356;2024-03-29T09:55:29;2.13;;;0.90;;
37051;SDS011;22964;52.272;13.356;2024-03-29T09:57:55;1.90;;;0.80;;
37051;SDS011;22964;52.272;13.356;2024-03-29T10:00:22;2.92;;;1.00;;
37051;SDS011;22964;52.272;13.356;2024-03-29T10:02:49;1.75;;;0.80;;
37051;SDS011;22964;52.272;13.356;2024-03-29T10:05:18;1.40;;;0.88;;
37051;SDS011;22964;52.272;13.356;2024-03-29T10:07:45;3.28;;;0.90;;
37051;SDS011;22964;52.272;13.356;2024-03-29T10:10:12;1.98;;;0.88;;
37051;SDS011;22964;52.272;13.356;2024-03-29T10:12:38;1.77;;;0.80;;
37051;SDS011;22964;52.272;13.356;2024-03-29T10:15:04;1.98;;;0.90;;
37051;SDS011;22964;52.272;13.356;2024-03-29T10:17:34;2.30;;;0.70;;
37051;SDS011;22964;52.272;13.356;2024-03-29T10:20:00;2.35;;;0.82;;
37051;SDS011;22964;52.272;13.356;2024-03-29T10:22:28;1.15;;;0.80;;
37051;SDS011;22964;52.272;13.356;2024-03-29T10:25:14;1.67;;;0.80;;
37051;SDS011;22964;52.272;13.356;2024-03-29T10:27:41;1.75;;;0.73;;
37051;SDS011;22964;52.272;13.356;2024-03-29T10:30:08;1.40;;;0.70;;
37051;SDS011;22964;52.272;13.356;2024-03-29T10:32:37;1.98;;;0.80;;
37051;SDS011;22964;52.272;13.356;2024-03-29T10:35:06;1.67;;;0.75;;
37051;SDS011;22964;52.272;13.356;2024-03-29T10:37:33;1.27;;;0.80;;
37051;SDS011;22964;52.272;13.356;2024-03-29T10:40:12;2.42;;;0.90;;
37051;SDS011;22964;52.272;13.356;2024-03-29T10:42:42;2.03;;;0.90;;
37051;SDS011;22964;52.272;13.356;2024-03-29T10:45:09;1.80;;;1.05;;
37051;SDS011;22964;52.272;13.356;2024-03-29T10:47:35;2.10;;;1.08;;
37051;SDS011;22964;52.272;13.356;2024-03-29T10:50:01;1.98;;;0.88;;
37051;SDS011;22964;52.272;13.356;2024-03-29T10:52:30;1.67;;;0.90;;
37051;SDS011;22964;52.272;13.356;2024-03-29T10:54:57;1.50;;;0.90;;
37051;SDS011;22964;52.272;13.356;2024-03-29T10:57:24;2.63;;;1.00;;
37051;SDS011;22964;52.272;13.356;2024-03-29T11:05:21;1.85;;;0.90;;
37051;SDS011;22964;52.272;13.356;2024-03-29T11:07:47;1.75;;;0.75;;
37051;SDS011;22964;52.272;13.356;2024-03-29T11:10:25;1.55;;;0.80;;
37051;SDS011;22964;52.272;13.356;2024-03-29T11:13:06;2.67;;;1.00;;
37051;SDS011;22964;52.272;13.356;2024-03-29T11:15:41;1.35;;;0.60;;
37051;SDS011;22964;52.272;13.356;2024-03-29T11:18:10;1.33;;;0.77;;
37051;SDS011;22964;52.272;13.356;2024-03-29T11:20:37;1.77;;;0.82;;
37051;SDS011;22964;52.272;13.356;2024-03-29T11:23:09;2.40;;;0.80;;
37051;SDS011;22964;52.272;13.356;2024-03-29T11:25:41;1.23;;;0.80;;
37051;SDS011;22964;52.272;13.356;2024-03-29T11:28:10;1.05;;;0.68;;
37051;SDS011;22964;52.272;13.356;2024-03-29T11:30:46;1.27;;;0.80;;
37051;SDS011;22964;52.272;13.356;2024-03-29T11:33:29;1.00;;;0.65;;
37051;SDS011;22964;52.272;13.356;2024-03-29T11:35:59;1.85;;;0.60;;
37051;SDS011;22964;52.272;13.356;2024-03-29T11:38:34;1.77;;;0.70;;
37051;SDS011;22964;52.272;13.356;2024-03-29T11:41:04;1.30;;;0.68;;
37051;SDS011;22964;52.272;13.356;2024-03-29T11:43:32;2.20;;;0.93;;
37051;SDS011;22964;52.272;13.356;2024-03-29T11:45:59;1.25;;;0.60;;
37051;SDS011;22964;52.272;13.356;2024-03-29T11:48:26;1.27;;;0.70;;
37051;SDS011;22964;52.272;13.356;2024-03-29T11:50:53;1.10;;;0.60;;
37051;SDS011;22964;52.272;13.356;2024-03-29T11:53:19;1.63;;;0.90;;
37051;SDS011;22964;52.272;13.356;2024-03-29T11:55:46;2.08;;;0.90;;
37051;SDS011;22964;52.272;13.356;2024-03-29T11:58:14;1.27;;;0.63;;
37051;SDS011;22964;52.272;13.356;2024-03-29T12:00:40;1.63;;;0.80;;
37051;SDS011;22964;52.272;13.356;2024-03-29T12:03:09;2.03;;;0.80;;
37051;SDS011;22964;52.272;13.356;2024-03-29T12:05:35;1.52;;;0.70;;
37051;SDS011;22964;52.272;13.356;2024-03-29T12:08:01;1.17;;;0.70;;
37051;SDS011;22964;52.272;13.356;2024-03-29T12:10:28;1.13;;;0.60;;
37051;SDS011;22964;52.272;13.356;2024-03-29T12:12:58;1.77;;;0.63;;
37051;SDS011;22964;52.272;13.356;2024-03-29T12:15:27;1.05;;;0.60;;
37051;SDS011;22964;52.272;13.356;2024-03-29T12:17:54;1.73;;;0.70;;
37051;SDS011;22964;52.272;13.356;2024-03-29T12:20:23;1.08;;;0.63;;
37051;SDS011;22964;52.272;13.356;2024-03-29T12:22:48;1.23;;;0.80;;
37051;SDS011;22964;52.272;13.356;2024-03-29T12:25:14;1.63;;;0.80;;
37051;SDS011;22964;52.272;13.356;2024-03-29T12:27:44;1.77;;;0.80;;
37051;SDS011;22964;52.272;13.356;2024-03-29T12:30:11;2.33;;;0.85;;
37051;SDS011;22964;52.272;13.356;2024-03-29T12:32:38;0.82;;;0.60;;
37051;SDS011;22964;52.272;13.356;2024-03-29T12:35:11;1.40;;;0.77;;
37051;SDS011;22964;52.272;13.356;2024-03-29T12:37:46;4.20;;;0.80;;
37051;SDS011;22964;52.272;13.356;2024-03-29T12:40:17;2.70;;;0.70;;
37051;SDS011;22964;52.272;13.356;2024-03-29T12:42:48;0.82;;;0.60;;
37051;SDS011;22964;52.272;13.356;2024-03-29T12:45:16;1.05;;;0.60;;
37051;SDS011;22964;52.272;13.356;2024-03-29T12:47:43;1.73;;;0.90;;
37051;SDS011;22964;52.272;13.356;2024-03-29T12:50:13;2.35;;;0.90;;
37051;SDS011;22964;52.272;13.356;2024-03-29T12:52:53;1.52;;;0.80;;
37051;SDS011;22964;52.272;13.356;2024-03-29T12:55:21;1.27;;;0.80;;
37051;SDS011;22964;52.272;13.356;2024-03-29T12:57:48;1.60;;;0.70;;
37051;SDS011;22964;52.272;13.356;2024-03-29T13:00:14;0.98;;;0.70;;
37051;SDS011;22964;52.272;13.356;2024-03-29T13:02:40;0.90;;;0.70;;
37051;SDS011;22964;52.272;13.356;2024-03-29T13:05:06;2.40;;;0.85;;
37051;SDS011;22964;52.272;13.356;2024-03-29T13:07:32;1.33;;;0.60;;
37051;SDS011;22964;52.272;13.356;2024-03-29T13:09:59;1.98;;;0.80;;
37051;SDS011;22964;52.272;13.356;2024-03-29T13:12:29;1.00;;;0.70;;
37051;SDS011;22964;52.272;13.356;2024-03-29T13:15:01;1.65;;;0.68;;
37051;SDS011;22964;52.272;13.356;2024-03-29T13:17:31;1.63;;;1.00;;
37051;SDS011;22964;52.272;13.356;2024-03-29T13:19:57;1.23;;;0.70;;
37051;SDS011;22964;52.272;13.356;2024-03-29T13:22:23;0.85;;;0.60;;
37051;SDS011;22964;52.272;13.356;2024-03-29T13:24:48;1.15;;;0.68;;
37051;SDS011;22964;52.272;13.356;2024-03-29T13:27:15;1.02;;;0.70;;
37051;SDS011;22964;52.272;13.356;2024-03-29T13:29:41;1.90;;;0.80;;
37051;SDS011;22964;52.272;13.356;2024-03-29T13:32:07;1.15;;;0.70;;
37051;SDS011;22964;52.272;13.356;2024-03-29T13:34:33;1.35;;;0.73;;
37051;SDS011;22964;52.272;13.356;2024-03-29T13:36:59;2.15;;;1.00;;
37051;SDS011;22964;52.272;13.356;2024-03-29T13:39:24;1.50;;;0.70;;
37051;SDS011;22964;52.272;13.356;2024-03-29T13:41:50;1.98;;;0.90;;
37051;SDS011;22964;52.272;13.356;2024-03-29T13:44:18;1.92;;;0.90;;
37051;SDS011;22964;52.272;13.356;2024-03-29T13:46:44;2.28;;;0.90;;
37051;SDS011;22964;52.272;13.356;2024-03-29T13:49:10;1.80;;;0.80;;
37051;SDS011;22964;52.272;13.356;2024-03-29T13:51:37;1.25;;;0.70;;
37051;SDS011;22964;52.272;13.356;2024-03-29T13:54:03;1.85;;;0.90;;
37051;SDS011;22964;52.272;13.356;2024-03-29T13:56:30;1.30;;;0.70;;
37051;SDS011;22964;52.272;13.356;2024-03-29T13:58:56;2.25;;;0.80;;
37051;SDS011;22964;52.272;13.356;2024-03-29T14:01:21;1.40;;;0.80;;
37051;SDS011;22964;52.272;13.356;2024-03-29T14:03:47;2.00;;;0.80;;
37051;SDS011;22964;52.272;13.356;2024-03-29T14:06:13;1.58;;;0.80;;
37051;SDS011;22964;52.272;13.356;2024-03-29T14:08:39;2.00;;;0.80;;
37051;SDS011;22964;52.272;13.356;2024-03-29T14:11:05;1.60;;;0.98;;
37051;SDS011;22964;52.272;13.356;2024-03-29T14:13:31;1.13;;;0.75;;
37051;SDS011;22964;52.272;13.356;2024-03-29T14:15:57;1.10;;;0.73;;
37051;SDS011;22964;52.272;13.356;2024-03-29T14:18:24;2.13;;;0.77;;
37051;SDS011;22964;52.272;13.356;2024-03-29T14:20:50;1.48;;;0.75;;
37051;SDS011;22964;52.272;13.356;2024-03-29T14:23:16;1.30;;;0.70;;
37051;SDS011;22964;52.272;13.356;2024-03-29T14:25:44;0.82;;;0.70;;
37051;SDS011;22964;52.272;13.356;2024-03-29T14:28:10;3.22;;;0.93;;
37051;SDS011;22964;52.272;13.356;2024-03-29T14:30:35;1.63;;;0.73;;
37051;SDS011;22964;52.272;13.356;2024-03-29T14:33:01;1.08;;;0.80;;
37051;SDS011;22964;52.272;13.356;2024-03-29T14:35:31;1.48;;;0.70;;
37051;SDS011;22964;52.272;13.356;2024-03-29T14:37:58;1.85;;;0.80;;